createdAt,value
2018-08-10T00:01:52.189Z,98756.00
2018-08-10T00:04:21.749Z,98758.00
2018-08-10T00:06:51.410Z,98750.00
2018-08-10T00:09:21.369Z,98754.00
2018-08-10T00:11:51.049Z,98758.00
2018-08-10T00:14:20.664Z,98761.00
2018-08-10T00:16:50.212Z,98748.00
2018-08-10T00:19:19.710Z,98761.00
2018-08-10T00:21:49.729Z,98765.00
2018-08-10T00:24:19.289Z,98758.00
2018-08-10T00:26:48.889Z,98769.00
2018-08-10T00:29:18.569Z,98776.00
2018-08-10T00:31:48.209Z,98782.00
2018-08-10T00:34:17.709Z,98780.00
2018-08-10T00:36:47.469Z,98795.00
2018-08-10T00:39:17.029Z,98786.00
2018-08-10T00:41:46.949Z,98798.00
2018-08-10T00:44:16.613Z,98797.00
2018-08-10T00:46:46.213Z,98798.00
2018-08-10T00:49:15.949Z,98807.00
2018-08-10T00:51:45.850Z,98810.00
2018-08-10T00:54:15.851Z,98810.00
2018-08-10T00:56:45.670Z,98811.00
2018-08-10T00:59:15.809Z,98809.00
2018-08-10T01:01:45.350Z,98816.00
2018-08-10T01:04:15.189Z,98825.00
2018-08-10T01:06:44.869Z,98825.00
2018-08-10T01:09:14.825Z,98824.00
2018-08-10T01:11:44.911Z,98823.00
2018-08-10T01:14:14.469Z,98822.00
2018-08-10T01:16:44.329Z,98825.00
2018-08-10T01:19:14.245Z,98834.00
2018-08-10T01:21:44.009Z,98831.00
2018-08-10T01:24:13.889Z,98830.00
2018-08-10T01:26:43.773Z,98832.00
2018-08-10T01:29:14.354Z,98830.00
2018-08-10T01:31:44.009Z,98834.00
2018-08-10T01:34:13.984Z,98833.00
2018-08-10T01:36:43.630Z,98837.00
2018-08-10T01:39:18.209Z,98849.00
2018-08-10T01:41:47.769Z,98857.00
2018-08-10T01:44:17.749Z,98848.00
2018-08-10T01:46:47.312Z,98846.00
2018-08-10T01:49:16.829Z,98836.00
2018-08-10T01:51:46.373Z,98850.00
2018-08-10T01:54:15.849Z,98850.00
2018-08-10T01:56:45.425Z,98851.00
2018-08-10T01:59:14.949Z,98844.00
2018-08-10T02:01:44.972Z,98843.00
2018-08-10T02:04:14.669Z,98850.00
2018-08-10T02:06:45.089Z,98852.00
2018-08-10T02:09:15.384Z,98861.00
2018-08-10T02:11:45.376Z,98859.00
2018-08-10T02:14:15.350Z,98858.00
2018-08-10T02:17:13.392Z,98869.00
2018-08-10T02:19:43.950Z,98868.00
2018-08-10T02:22:13.729Z,98866.00
2018-08-10T02:24:43.423Z,98868.00
2018-08-10T02:27:12.932Z,98870.00
2018-08-10T02:29:42.751Z,98861.00
2018-08-10T02:32:12.229Z,98866.00
2018-08-10T02:34:42.311Z,98872.00
2018-08-10T02:37:12.459Z,98882.00
2018-08-10T02:39:42.230Z,98886.00
2018-08-10T02:42:12.397Z,98883.00
2018-08-10T02:44:41.909Z,98882.00
2018-08-10T02:47:11.735Z,98890.00
2018-08-10T02:49:41.250Z,98890.00
2018-08-10T02:52:10.936Z,98886.00
2018-08-10T02:54:40.409Z,98892.00
2018-08-10T02:57:09.929Z,98890.00
2018-08-10T02:59:39.511Z,98899.00
2018-08-10T03:02:09.566Z,98896.00
2018-08-10T03:04:39.209Z,98902.00
2018-08-10T03:07:09.509Z,98901.00
2018-08-10T03:09:39.269Z,98904.00
2018-08-10T03:12:10.609Z,98906.00
2018-08-10T03:14:40.471Z,98905.00
2018-08-10T03:17:10.709Z,98921.00
2018-08-10T03:19:40.329Z,98930.00
2018-08-10T03:22:09.862Z,98931.00
2018-08-10T03:24:39.591Z,98930.00
2018-08-10T03:27:09.729Z,98935.00
2018-08-10T03:29:40.229Z,98938.00
2018-08-10T03:32:09.871Z,98945.00
2018-08-10T03:34:39.768Z,98950.00
2018-08-10T03:37:09.568Z,98955.00
2018-08-10T03:39:39.248Z,98959.00
2018-08-10T03:42:08.690Z,98952.00
2018-08-10T03:44:38.248Z,98960.00
2018-08-10T03:47:07.733Z,98959.00
2018-08-10T03:49:37.249Z,98956.00
2018-08-10T03:52:07.154Z,98966.00
2018-08-10T03:54:36.919Z,98962.00
2018-08-10T03:57:06.868Z,98968.00
2018-08-10T03:59:36.708Z,98973.00
2018-08-10T04:02:06.751Z,98980.00
2018-08-10T04:04:36.312Z,98984.00
2018-08-10T04:07:05.833Z,98994.00
2018-08-10T04:09:35.408Z,98997.00
2018-08-10T04:12:05.328Z,98999.00
2018-08-10T04:14:35.012Z,99005.00
2018-08-10T04:17:04.893Z,99003.00
2018-08-10T04:19:34.428Z,99009.00
2018-08-10T04:22:04.128Z,99016.00
2018-08-10T04:24:33.529Z,99023.00
2018-08-10T04:27:03.069Z,99025.00
2018-08-10T04:29:32.740Z,99026.00
2018-08-10T04:32:02.329Z,99038.00
2018-08-10T04:34:31.828Z,99038.00
2018-08-10T04:37:01.452Z,99040.00
2018-08-10T04:39:31.428Z,99041.00
2018-08-10T04:42:00.988Z,99034.00
2018-08-10T04:44:30.928Z,99038.00
2018-08-10T04:47:00.448Z,99037.00
2018-08-10T04:49:30.069Z,99034.00
2018-08-10T04:51:59.829Z,99041.00
2018-08-10T04:54:29.688Z,99044.00
2018-08-10T04:56:59.350Z,99042.00
2018-08-10T04:59:28.912Z,99054.00
2018-08-10T05:01:58.829Z,99047.00
2018-08-10T05:04:28.469Z,99058.00
2018-08-10T05:06:57.975Z,99053.00
2018-08-10T05:09:27.548Z,99063.00
2018-08-10T05:11:57.153Z,99066.00
2018-08-10T05:14:27.013Z,99073.00
2018-08-10T05:16:56.968Z,99073.00
2018-08-10T05:19:26.774Z,99077.00
2018-08-10T05:21:56.509Z,99075.00
2018-08-10T05:24:26.209Z,99082.00
2018-08-10T05:26:56.051Z,99074.00
2018-08-10T05:29:25.628Z,99083.00
2018-08-10T05:31:55.278Z,99090.00
2018-08-10T05:34:24.917Z,99085.00
2018-08-10T05:36:54.959Z,99090.00
2018-08-10T05:39:24.775Z,99091.00
2018-08-10T05:41:54.376Z,99095.00
2018-08-10T05:44:24.237Z,99102.00
2018-08-10T05:46:53.848Z,99108.00
2018-08-10T05:49:23.696Z,99098.00
2018-08-10T05:51:53.256Z,99104.00
2018-08-10T05:54:22.952Z,99101.00
2018-08-10T05:56:52.536Z,99116.00
2018-08-10T05:59:22.096Z,99111.00
2018-08-10T06:01:52.037Z,99115.00
2018-08-10T06:04:21.757Z,99111.00
2018-08-10T06:06:51.416Z,99109.00
2018-08-10T06:09:21.057Z,99118.00
2018-08-10T06:11:50.914Z,99122.00
2018-08-10T06:14:20.377Z,99117.00
2018-08-10T06:16:49.957Z,99112.00
2018-08-10T06:19:19.603Z,99114.00
2018-08-10T06:21:49.183Z,99120.00
2018-08-10T06:24:18.637Z,99125.00
2018-08-10T06:26:48.337Z,99120.00
2018-08-10T06:29:17.912Z,99127.00
2018-08-10T06:31:47.592Z,99123.00
2018-08-10T06:34:17.253Z,99128.00
2018-08-10T06:36:47.083Z,99131.00
2018-08-10T06:39:16.618Z,99130.00
2018-08-10T06:41:46.143Z,99122.00
2018-08-10T06:44:15.683Z,99115.00
2018-08-10T06:46:45.263Z,99127.00
2018-08-10T06:49:14.746Z,99116.00
2018-08-10T06:51:44.563Z,99118.00
2018-08-10T06:54:14.483Z,99115.00
2018-08-10T06:56:43.923Z,99112.00
2018-08-10T06:59:13.529Z,99118.00
2018-08-10T07:01:43.284Z,99113.00
2018-08-10T07:04:13.303Z,99115.00
2018-08-10T07:06:43.169Z,99121.00
2018-08-10T07:09:13.443Z,99120.00
2018-08-10T07:11:42.945Z,99128.00
2018-08-10T07:14:12.383Z,99127.00
2018-08-10T07:16:41.924Z,99130.00
2018-08-10T07:19:11.483Z,99125.00
2018-08-10T07:21:41.083Z,99138.00
2018-08-10T07:24:10.503Z,99132.00
2018-08-10T07:26:40.143Z,99132.00
2018-08-10T07:29:09.663Z,99130.00
2018-08-10T07:31:39.525Z,99122.00
2018-08-10T07:34:09.243Z,99125.00
2018-08-10T07:36:39.123Z,99126.00
2018-08-10T07:39:11.483Z,99125.00
2018-08-10T07:41:42.051Z,99137.00
2018-08-10T07:44:11.624Z,99135.00
2018-08-10T07:46:41.215Z,99149.00
2018-08-10T07:49:10.749Z,99152.00
2018-08-10T07:51:40.308Z,99154.00
2018-08-10T07:54:09.853Z,99148.00
2018-08-10T07:56:39.391Z,99151.00
2018-08-10T07:59:09.385Z,99149.00
2018-08-10T08:01:38.911Z,99147.00
2018-08-10T08:04:09.871Z,99150.00
2018-08-10T08:06:39.293Z,99152.00
2018-08-10T08:09:12.012Z,99151.00
2018-08-10T08:11:42.231Z,99152.00
2018-08-10T08:14:11.765Z,99152.00
2018-08-10T08:16:41.536Z,99152.00
2018-08-10T08:19:11.023Z,99161.00
2018-08-10T08:21:54.052Z,99165.00
2018-08-10T08:24:23.804Z,99171.00
2018-08-10T08:26:53.391Z,99166.00
2018-08-10T08:29:22.823Z,99169.00
2018-08-10T08:31:52.792Z,99170.00
2018-08-10T08:34:22.536Z,99169.00
2018-08-10T08:36:52.543Z,99170.00
2018-08-10T08:39:38.272Z,99167.00
2018-08-10T08:42:07.914Z,99175.00
2018-08-10T08:46:54.632Z,99168.00
2018-08-10T08:49:24.372Z,99171.00
2018-08-10T08:51:54.149Z,99170.00
2018-08-10T08:56:42.492Z,99163.00
2018-08-10T08:59:12.072Z,99164.00
2018-08-10T09:01:41.532Z,99163.00
2018-08-10T09:05:02.712Z,99175.00
2018-08-10T09:07:32.740Z,99176.00
2018-08-10T09:10:04.004Z,99174.00
2018-08-10T09:12:33.591Z,99179.00
2018-08-10T09:15:07.173Z,99166.00
2018-08-10T09:17:36.956Z,99178.00
2018-08-10T09:20:08.582Z,99164.00
2018-08-10T09:22:38.271Z,99174.00
2018-08-10T09:25:14.979Z,99166.00
2018-08-10T09:27:44.632Z,99167.00
2018-08-10T09:30:16.883Z,99168.00
2018-08-10T09:32:46.611Z,99175.00
2018-08-10T09:35:16.431Z,99171.00
2018-08-10T09:37:46.631Z,99172.00
2018-08-10T09:40:18.012Z,99166.00
2018-08-10T09:42:48.019Z,99173.00
2018-08-10T09:45:18.566Z,99181.00
2018-08-10T09:47:49.272Z,99182.00
2018-08-10T09:50:19.991Z,99183.00
2018-08-10T09:53:00.912Z,99180.00
2018-08-10T09:55:37.531Z,99183.00
2018-08-10T09:58:13.353Z,99183.00
2018-08-10T10:00:48.424Z,99188.00
2018-08-10T10:03:20.092Z,99179.00
2018-08-10T10:05:50.892Z,99185.00
2018-08-10T10:08:21.191Z,99179.00
2018-08-10T10:10:51.074Z,99188.00
2018-08-10T10:13:20.651Z,99180.00
2018-08-10T10:15:50.217Z,99179.00
2018-08-10T10:18:19.831Z,99186.00
2018-08-10T10:20:49.511Z,99177.00
2018-08-10T10:23:19.330Z,99183.00
2018-08-10T10:25:49.211Z,99180.00
2018-08-10T10:28:19.151Z,99181.00
2018-08-10T10:30:48.911Z,99171.00
2018-08-10T10:33:18.451Z,99174.00
2018-08-10T10:35:48.003Z,99175.00
2018-08-10T10:38:17.528Z,99176.00
2018-08-10T10:40:47.251Z,99183.00
2018-08-10T10:43:16.951Z,99198.00
2018-08-10T10:45:46.511Z,99195.00
2018-08-10T10:48:16.451Z,99197.00
2018-08-10T10:50:46.269Z,99196.00
2018-08-10T10:53:15.875Z,99197.00
2018-08-10T10:55:45.652Z,99210.00
2018-08-10T10:58:15.360Z,99197.00
2018-08-10T11:00:44.973Z,99197.00
2018-08-10T11:03:14.571Z,99204.00
2018-08-10T11:05:44.231Z,99209.00
2018-08-10T11:08:14.288Z,99199.00
2018-08-10T11:10:44.162Z,99205.00
2018-08-10T11:13:14.001Z,99209.00
2018-08-10T11:15:43.640Z,99219.00
2018-08-10T11:18:13.477Z,99215.00
2018-08-10T11:20:43.042Z,99219.00
2018-08-10T11:23:12.588Z,99224.00
2018-08-10T11:25:42.220Z,99233.00
2018-08-10T11:30:47.063Z,99230.00
2018-08-10T11:33:16.614Z,99237.00
2018-08-10T11:35:46.181Z,99240.00
2018-08-10T11:38:15.861Z,99249.00
2018-08-10T11:40:45.481Z,99244.00
2018-08-10T11:43:15.041Z,99246.00
2018-08-10T11:45:44.721Z,99247.00
2018-08-10T11:48:14.421Z,99248.00
2018-08-10T11:50:44.181Z,99244.00
2018-08-10T11:53:13.681Z,99245.00
2018-08-10T11:55:43.260Z,99253.00
2018-08-10T11:58:12.903Z,99257.00
2018-08-10T12:00:44.561Z,99268.00
2018-08-10T12:03:14.041Z,99269.00
2018-08-10T12:05:43.686Z,99270.00
2018-08-10T12:08:13.341Z,99271.00
2018-08-10T12:10:43.301Z,99272.00
2018-08-10T12:13:12.901Z,99272.00
2018-08-10T12:15:42.560Z,99277.00
2018-08-10T12:18:12.181Z,99283.00
2018-08-10T12:20:41.923Z,99279.00
2018-08-10T12:23:11.642Z,99283.00
2018-08-10T12:25:41.541Z,99288.00
2018-08-10T12:28:11.614Z,99292.00
2018-08-10T12:30:41.721Z,99296.00
2018-08-10T12:33:11.485Z,99296.00
2018-08-10T12:35:41.027Z,99293.00
2018-08-10T12:38:10.860Z,99294.00
2018-08-10T12:40:40.780Z,99298.00
2018-08-10T12:43:10.441Z,99308.00
2018-08-10T12:45:39.961Z,99312.00
2018-08-10T12:48:09.721Z,99309.00
2018-08-10T12:50:39.561Z,99309.00
2018-08-10T12:53:09.401Z,99317.00
2018-08-10T12:55:39.041Z,99321.00
2018-08-10T12:58:11.560Z,99320.00
2018-08-10T13:00:41.121Z,99324.00
2018-08-10T13:03:10.773Z,99326.00
2018-08-10T13:05:40.461Z,99334.00
2018-08-10T13:08:10.078Z,99337.00
2018-08-10T13:10:39.905Z,99335.00
2018-08-10T13:13:10.089Z,99335.00
2018-08-10T13:15:40.090Z,99334.00
2018-08-10T13:18:09.908Z,99338.00
2018-08-10T13:20:39.560Z,99326.00
2018-08-10T13:23:09.123Z,99334.00
2018-08-10T13:25:38.915Z,99341.00
2018-08-10T13:28:08.901Z,99344.00
2018-08-10T13:30:38.443Z,99344.00
2018-08-10T13:33:08.067Z,99346.00
2018-08-10T13:35:37.749Z,99343.00
2018-08-10T13:38:07.947Z,99344.00
2018-08-10T13:40:37.587Z,99353.00
2018-08-10T13:43:07.607Z,99352.00
2018-08-10T13:45:37.050Z,99351.00
2018-08-10T13:48:06.768Z,99355.00
2018-08-10T13:50:36.335Z,99365.00
2018-08-10T13:53:05.811Z,99363.00
2018-08-10T13:55:35.518Z,99362.00
2018-08-10T13:58:05.184Z,99364.00
2018-08-10T14:00:34.779Z,99365.00
2018-08-10T14:03:04.718Z,99367.00
2018-08-10T14:05:34.136Z,99364.00
2018-08-10T14:08:03.771Z,99370.00
2018-08-10T14:10:33.411Z,99365.00
2018-08-10T14:13:02.796Z,99365.00
2018-08-10T14:15:32.128Z,99360.00
2018-08-10T14:18:01.704Z,99361.00
2018-08-10T14:20:30.992Z,99369.00
2018-08-10T14:23:00.982Z,99363.00
2018-08-10T14:25:30.527Z,99368.00
2018-08-10T14:28:00.078Z,99371.00
2018-08-10T14:30:29.598Z,99373.00
2018-08-10T14:32:59.201Z,99369.00
2018-08-10T14:35:28.838Z,99378.00
2018-08-10T14:37:58.707Z,99370.00
2018-08-10T14:40:29.000Z,99380.00
2018-08-10T14:42:59.111Z,99370.00
2018-08-10T14:45:28.801Z,99369.00
2018-08-10T14:47:58.407Z,99372.00
2018-08-10T14:50:27.955Z,99370.00
2018-08-10T14:52:57.847Z,99367.00
2018-08-10T14:55:27.348Z,99382.00
2018-08-10T14:57:56.996Z,99379.00
2018-08-10T15:00:26.711Z,99387.00
2018-08-10T15:02:56.467Z,99383.00
2018-08-10T15:05:26.075Z,99383.00
2018-08-10T15:07:55.567Z,99378.00
2018-08-10T15:10:25.227Z,99385.00
2018-08-10T15:12:55.350Z,99386.00
2018-08-10T15:15:24.756Z,99394.00
2018-08-10T15:17:54.237Z,99391.00
2018-08-10T15:20:23.918Z,99392.00
2018-08-10T15:22:53.436Z,99388.00
2018-08-10T15:25:23.477Z,99385.00
2018-08-10T15:27:53.457Z,99378.00
2018-08-10T15:30:23.539Z,99384.00
2018-08-10T15:32:53.356Z,99379.00
2018-08-10T15:35:22.923Z,99386.00
2018-08-10T15:37:52.700Z,99387.00
2018-08-10T15:40:22.296Z,99390.00
2018-08-10T15:42:58.996Z,99395.00
2018-08-10T15:45:28.847Z,99387.00
2018-08-10T15:47:58.571Z,99395.00
2018-08-10T15:50:28.328Z,99398.00
2018-08-10T15:52:57.927Z,99391.00
2018-08-10T15:55:27.527Z,99397.00
2018-08-10T15:57:57.207Z,99401.00
2018-08-10T16:00:26.868Z,99398.00
2018-08-10T16:02:56.376Z,99392.00
2018-08-10T16:05:25.936Z,99390.00
2018-08-10T16:07:55.687Z,99393.00
2018-08-10T16:10:25.507Z,99395.00
2018-08-10T16:12:55.107Z,99391.00
2018-08-10T16:15:24.615Z,99397.00
2018-08-10T16:17:54.312Z,99399.00
2018-08-10T16:20:24.198Z,99393.00
2018-08-10T16:22:53.777Z,99400.00
2018-08-10T16:25:24.103Z,99390.00
2018-08-10T16:27:53.904Z,99402.00
2018-08-10T16:30:23.766Z,99388.00
2018-08-10T16:32:53.668Z,99391.00
2018-08-10T16:35:23.829Z,99395.00
2018-08-10T16:37:53.840Z,99395.00
2018-08-10T16:40:24.228Z,99399.00
2018-08-10T16:42:53.872Z,99394.00
2018-08-10T16:45:23.455Z,99396.00
2018-08-10T16:47:53.316Z,99409.00
2018-08-10T16:50:23.119Z,99405.00
2018-08-10T16:52:52.762Z,99405.00
2018-08-10T16:55:22.497Z,99408.00
2018-08-10T16:57:52.078Z,99406.00
2018-08-10T17:00:22.201Z,99399.00
2018-08-10T17:02:51.996Z,99396.00
2018-08-10T17:05:22.070Z,99397.00
2018-08-10T17:07:51.857Z,99400.00
2018-08-10T17:10:22.203Z,99392.00
2018-08-10T17:12:52.077Z,99386.00
2018-08-10T17:15:22.696Z,99388.00
2018-08-10T17:17:52.818Z,99381.00
2018-08-10T17:20:23.756Z,99388.00
2018-08-10T17:22:53.437Z,99389.00
2018-08-10T17:25:23.877Z,99392.00
2018-08-10T17:27:53.617Z,99400.00
2018-08-10T17:30:23.977Z,99404.00
2018-08-10T17:32:53.896Z,99406.00
2018-08-10T17:35:23.596Z,99404.00
2018-08-10T17:37:54.016Z,99404.00
2018-08-10T17:40:23.876Z,99395.00
2018-08-10T17:42:54.236Z,99392.00
2018-08-10T17:45:24.985Z,99381.00
2018-08-10T17:47:54.996Z,99381.00
2018-08-10T17:50:25.450Z,99381.00
2018-08-10T17:52:55.413Z,99378.00
2018-08-10T17:55:25.537Z,99380.00
2018-08-10T17:57:55.276Z,99382.00
2018-08-10T18:00:26.359Z,99382.00
2018-08-10T18:02:56.095Z,99390.00
2018-08-10T18:05:25.883Z,99395.00
2018-08-10T18:07:55.603Z,99392.00
2018-08-10T18:10:25.363Z,99393.00
2018-08-10T18:12:55.016Z,99394.00
2018-08-10T18:15:24.577Z,99406.00
2018-08-10T18:17:54.278Z,99403.00
2018-08-10T18:20:23.822Z,99400.00
2018-08-10T18:22:53.522Z,99402.00
2018-08-10T18:25:23.795Z,99405.00
2018-08-10T18:27:53.694Z,99407.00
2018-08-10T18:30:25.016Z,99405.00
2018-08-10T18:32:54.794Z,99416.00
2018-08-10T18:35:24.910Z,99418.00
2018-08-10T18:37:54.715Z,99409.00
2018-08-10T18:40:24.876Z,99418.00
2018-08-10T18:42:54.978Z,99426.00
2018-08-10T18:45:24.937Z,99430.00
2018-08-10T18:47:54.914Z,99427.00
2018-08-10T18:50:24.671Z,99424.00
2018-08-10T18:52:54.177Z,99433.00
2018-08-10T18:55:24.197Z,99428.00
2018-08-10T18:57:53.870Z,99435.00
2018-08-10T19:00:25.659Z,99431.00
2018-08-10T19:02:56.038Z,99437.00
2018-08-10T19:05:25.798Z,99433.00
2018-08-10T19:07:55.759Z,99441.00
2018-08-10T19:10:26.937Z,99433.00
2018-08-10T19:12:56.817Z,99430.00
2018-08-10T19:15:26.774Z,99427.00
2018-08-10T19:17:56.627Z,99420.00
2018-08-10T19:20:26.253Z,99430.00
2018-08-10T19:22:55.993Z,99433.00
2018-08-10T19:25:25.632Z,99428.00
2018-08-10T19:27:55.207Z,99437.00
2018-08-10T19:30:25.452Z,99439.00
2018-08-10T19:32:55.514Z,99441.00
2018-08-10T19:35:25.147Z,99435.00
2018-08-10T19:37:54.893Z,99437.00
2018-08-10T19:40:24.993Z,99442.00
2018-08-10T19:42:54.614Z,99434.00
2018-08-10T19:45:24.177Z,99435.00
2018-08-10T19:47:53.879Z,99429.00
2018-08-10T19:50:24.673Z,99422.00
2018-08-10T19:52:54.859Z,99430.00
2018-08-10T19:55:24.897Z,99430.00
2018-08-10T19:57:54.477Z,99426.00
2018-08-10T20:00:24.217Z,99430.00
2018-08-10T20:02:54.357Z,99430.00
2018-08-10T20:05:24.537Z,99432.00
2018-08-10T20:07:54.257Z,99435.00
2018-08-10T20:10:24.098Z,99434.00
2018-08-10T20:12:53.877Z,99434.00
2018-08-10T20:15:23.888Z,99428.00
2018-08-10T20:17:53.478Z,99437.00
2018-08-10T20:20:23.173Z,99427.00
2018-08-10T20:22:52.878Z,99422.00
2018-08-10T20:25:22.497Z,99414.00
2018-08-10T20:27:52.037Z,99403.00
2018-08-10T20:30:21.898Z,99409.00
2018-08-10T20:32:52.018Z,99400.00
2018-08-10T20:35:21.678Z,99399.00
2018-08-10T20:37:51.786Z,99395.00
2018-08-10T20:40:21.623Z,99398.00
2018-08-10T20:42:51.376Z,99396.00
2018-08-10T20:45:21.407Z,99391.00
2018-08-10T20:47:51.234Z,99403.00
2018-08-10T20:50:22.394Z,99399.00
2018-08-10T20:52:52.026Z,99396.00
2018-08-10T20:55:21.947Z,99399.00
2018-08-10T20:57:51.727Z,99402.00
2018-08-10T21:00:21.366Z,99409.00
2018-08-10T21:02:51.307Z,99408.00
2018-08-10T21:05:21.107Z,99406.00
2018-08-10T21:07:50.724Z,99412.00
2018-08-10T21:10:20.377Z,99401.00
2018-08-10T21:12:50.116Z,99407.00
2018-08-10T21:15:19.838Z,99403.00
2018-08-10T21:17:49.596Z,99396.00
2018-08-10T21:20:19.348Z,99390.00
2018-08-10T21:22:49.178Z,99398.00
2018-08-10T21:25:19.401Z,99381.00
2018-08-10T21:27:49.156Z,99382.00
2018-08-10T21:30:19.837Z,99384.00
2018-08-10T21:32:49.689Z,99379.00
2018-08-10T21:35:19.356Z,99377.00
2018-08-10T21:37:49.194Z,99374.00
2018-08-10T21:40:19.201Z,99377.00
2018-08-10T21:42:48.937Z,99381.00
2018-08-10T21:45:18.616Z,99383.00
2018-08-10T21:47:48.297Z,99385.00
2018-08-10T21:50:17.916Z,99382.00
2018-08-10T21:52:47.516Z,99383.00
2018-08-10T21:55:17.122Z,99378.00
2018-08-10T21:57:46.912Z,99373.00
2018-08-10T22:00:31.555Z,99373.00
2018-08-10T22:03:01.235Z,99363.00
2018-08-10T22:05:30.754Z,99378.00
2018-08-10T22:08:00.155Z,99377.00
2018-08-10T22:10:29.783Z,99371.00
2018-08-10T22:12:59.468Z,99368.00
2018-08-10T22:15:34.554Z,99364.00
2018-08-10T22:18:09.635Z,99360.00
2018-08-10T22:20:39.274Z,99353.00
2018-08-10T22:23:08.755Z,99367.00
2018-08-10T22:25:38.235Z,99369.00
2018-08-10T22:28:07.915Z,99369.00
2018-08-10T22:30:37.489Z,99371.00
2018-08-10T22:33:07.475Z,99371.00
2018-08-10T22:35:37.128Z,99368.00
2018-08-10T22:38:06.514Z,99364.00
2018-08-10T22:40:36.096Z,99372.00
2018-08-10T22:43:05.995Z,99377.00
2018-08-10T22:45:35.675Z,99368.00
2018-08-10T22:48:05.934Z,99371.00
2018-08-10T22:50:35.554Z,99368.00
2018-08-10T22:53:05.794Z,99369.00
2018-08-10T22:55:35.874Z,99360.00
2018-08-10T22:58:05.655Z,99361.00
2018-08-10T23:00:35.494Z,99359.00
2018-08-10T23:03:05.362Z,99360.00
2018-08-10T23:05:35.538Z,99367.00
2018-08-10T23:08:05.584Z,99350.00
2018-08-10T23:10:35.377Z,99349.00
2018-08-10T23:13:05.314Z,99348.00
2018-08-10T23:15:35.176Z,99349.00
2018-08-10T23:18:05.894Z,99340.00
2018-08-10T23:20:35.556Z,99339.00
2018-08-10T23:23:05.634Z,99340.00
2018-08-10T23:25:35.974Z,99343.00
2018-08-10T23:28:05.877Z,99338.00
2018-08-10T23:30:35.520Z,99327.00
2018-08-10T23:33:05.274Z,99327.00
2018-08-10T23:35:34.854Z,99318.00
2018-08-10T23:38:04.635Z,99320.00
2018-08-10T23:40:34.834Z,99312.00
2018-08-10T23:43:04.753Z,99314.00
2018-08-10T23:45:34.613Z,99316.00
2018-08-10T23:48:04.494Z,99308.00
2018-08-10T23:50:34.514Z,99294.00
2018-08-10T23:53:04.174Z,99289.00
2018-08-10T23:55:33.914Z,99300.00
2018-08-10T23:58:03.691Z,99309.00
